Impacts METAR Board
IDs:

KMSP - Minneapolis-St Paul, MN, US

Updated at: 2100 UTC 21 May 2022
Potential Impact None Slight Moderate High
Time 21/09Z 21/10Z 21/11Z 21/12Z 21/13Z 21/14Z 21/15Z 21/16Z 21/17Z 21/18Z 21/19Z 21/20Z 21/21Z
Temp46 45 44 45 46 47 48 52 53 54 53 54 53
Dewpt33 31 31 31 31 32 32 33 32 33 31 31 29
Altim29.95 29.97 30.00 30.03 30.06 30.06 30.08 30.09 30.09 30.10 30.10 30.09 30.10
VIS10 10 10 10 10 10 10 10 10 10 10 10 10
CIG32 33 33 38 37 35 35 39 46 50 50 60 60
CoverOVCOVCBKNBKNOVCBKNBKNBKNBKNBKNBKNOVCOVC
FltCatVFRVFRVFRVFRVFRVFRVFRVFRVFRVFRVFRVFRVFR
WX--------------------------
WDir350340330350203100340350320310310300
WSpd12 13 10 10 7 9 5 8 11 13 8 10 11
WGst18 -- 17 -- -- -- -- -- -- 17 -- 16 21
Raw hourly METARs
KMSP 210853Z 35012G18KT 10SM OVC032 08/01 A2995 RMK AO2 SLP143 T00780006 53028
KMSP 210953Z 34013KT 10SM OVC033 07/M01 A2997 RMK AO2 SLP151 T00721006
KMSP 211053Z 33010G17KT 10SM BKN033 07/M01 A3000 RMK AO2 SLP162 T00671006
KMSP 211153Z 35010KT 10SM BKN038 07/M01 A3003 RMK AO2 SLP171 T00721006 10089 20067 53026
KMSP 211253Z 02007KT 10SM OVC037 08/M01 A3006 RMK AO2 SLP182 T00781006
KMSP 211353Z 31009KT 10SM BKN035 08/00 A3006 RMK AO2 SLP182 T00830000
KMSP 211453Z VRB05KT 10SM BKN035 09/00 A3008 RMK AO2 SLP189 T00890000 51016
KMSP 211553Z 34008KT 10SM BKN039 11/01 A3009 RMK AO2 SLP194 T01110006
KMSP 211653Z 35011KT 10SM BKN046 12/00 A3009 RMK AO2 SLP194 T01170000
KMSP 211753Z 32013G17KT 10SM BKN050 12/01 A3010 RMK AO2 SLP195 T01220006 10122 20072 51006
KMSP 211853Z 31008KT 10SM BKN050 BKN055 12/M01 A3010 RMK AO2 SLP195 T01171006
KMSP 211953Z 31010G16KT 10SM OVC060 12/M01 A3009 RMK AO2 SLP192 T01221006
KMSP 212053Z 30011G21KT 10SM OVC060 12/M02 A3010 RMK AO2 SLP196 T01171017 53001



Page loaded:  21:53 UTC  |   02:53 PM Pacific  |   03:53 PM Mountain  |   04:53 PM Central  |   05:53 PM Eastern

 

ADVISORIES

FORECASTS

FORECASTS

OBSERVATIONS

USER TOOLS

ABOUT US